Time;durP1;ratioP1;P1;durP2;ratioP2;P2;SDS_P1;SDS_P2;PMS_P1;PMS_P2;Temp;Humidity;BMP_temperature;BMP_pressure;BME280_temperature;BME280_humidity;BME280_pressure;Samples;Min_cycle;Max_cycle;Signal;HPM_P1;HPM_P2
2024/02/25 00:00:12;;;;;;;4.67;3.10;;;6.30;99.90;;;-141.84;65.74;18509.28;5093675;28;20192;-63
2024/02/25 00:02:41;;;;;;;3.50;3.20;;;6.30;99.90;;;-141.84;66.49;18493.03;5056262;28;20283;-63
2024/02/25 00:05:10;;;;;;;3.97;3.40;;;6.20;99.90;;;-141.84;67.35;18523.50;5093777;28;20712;-63
2024/02/25 00:07:38;;;;;;;4.47;3.40;;;6.10;99.90;;;-141.84;68.04;18517.41;5094450;28;20220;-63
2024/02/25 00:10:07;;;;;;;3.33;2.70;;;6.00;99.90;;;-141.84;68.64;18511.31;5095141;28;20247;-63
2024/02/25 00:12:36;;;;;;;5.83;3.07;;;5.90;99.90;;;-141.84;68.50;18515.38;5095989;28;20207;-64
2024/02/25 00:15:05;;;;;;;3.77;3.40;;;5.90;99.90;;;-141.84;68.52;18517.41;5094348;28;20296;-65
2024/02/25 00:17:36;;;;;;;3.83;3.17;;;5.90;99.90;;;-141.84;68.74;18511.31;5093312;28;20723;-63
2024/02/25 00:20:06;;;;;;;4.00;3.37;;;5.90;99.90;;;-141.84;69.06;18491.00;5092070;28;20269;-63
2024/02/25 00:22:35;;;;;;;4.23;3.60;;;5.80;99.90;;;-141.84;68.93;18525.53;5091226;28;20749;-64
2024/02/25 00:25:03;;;;;;;4.47;3.60;;;5.70;99.90;;;-141.84;69.79;18515.38;5095342;28;20322;-63
2024/02/25 00:27:33;;;;;;;3.87;3.00;;;5.70;99.90;;;-141.84;69.46;18535.69;5092658;28;20257;-63
2024/02/25 00:30:01;;;;;;;4.00;3.23;;;5.70;99.90;;;-141.84;69.31;18488.97;5093042;28;20264;-62
2024/02/25 00:32:29;;;;;;;3.73;3.10;;;5.70;99.90;;;-141.84;70.07;18501.16;5091592;28;20232;-63
2024/02/25 00:35:00;;;;;;;3.17;2.87;;;5.70;99.90;;;-141.84;69.56;18470.69;5093564;28;20207;-63
2024/02/25 00:37:28;;;;;;;3.10;2.80;;;5.70;99.90;;;-141.84;69.27;18497.09;5094234;28;20227;-63
2024/02/25 00:39:58;;;;;;;3.97;2.90;;;5.70;99.90;;;-141.84;68.09;18480.84;5090881;28;20322;-62
2024/02/25 00:42:26;;;;;;;4.43;3.77;;;5.70;99.90;;;-141.84;69.06;18517.41;5094936;28;20207;-63
2024/02/25 00:44:58;;;;;;;3.30;2.97;;;5.70;99.90;;;-141.84;69.77;18484.91;5092220;28;20212;-63
2024/02/25 00:47:28;;;;;;;4.20;3.57;;;5.60;99.90;;;-141.84;68.41;18476.78;5091493;28;20307;-63
2024/02/25 00:49:59;;;;;;;3.77;3.27;;;5.60;99.90;;;-141.84;66.38;18484.91;5093625;28;20659;-61
2024/02/25 00:52:31;;;;;;;4.17;3.00;;;5.80;99.90;;;-141.84;65.54;18464.59;5095245;28;20227;-62
2024/02/25 00:55:06;;;;;;;4.20;3.13;;;5.90;99.90;;;-141.84;66.03;18468.66;5094839;28;20423;-62
2024/02/25 00:57:39;;;;;;;4.23;2.70;;;5.90;99.90;;;-141.84;65.60;18452.41;5096286;28;20640;-63
2024/02/25 01:00:08;;;;;;;2.83;2.53;;;6.00;99.90;;;-141.84;66.35;18480.84;5095253;28;20203;-62
2024/02/25 01:02:38;;;;;;;3.87;3.07;;;5.90;99.90;;;-141.84;66.49;18488.97;5094767;28;20933;-62
2024/02/25 01:05:08;;;;;;;3.80;2.80;;;5.90;99.90;;;-141.84;66.35;18493.03;5085908;28;20319;-63
2024/02/25 01:07:38;;;;;;;3.40;2.77;;;5.90;99.90;;;-141.84;65.11;18472.72;5093661;28;20241;-65
2024/02/25 01:10:08;;;;;;;3.30;2.27;;;5.90;99.90;;;-141.84;64.92;18482.88;5095891;28;20266;-62
2024/02/25 01:12:36;;;;;;;2.87;2.20;;;5.90;99.90;;;-141.84;65.17;18448.34;5094640;28;20206;-63
2024/02/25 01:15:06;;;;;;;2.43;2.23;;;5.90;99.90;;;-141.84;65.62;18452.41;5094561;28;20195;-63
2024/02/25 01:17:36;;;;;;;3.50;2.37;;;5.90;99.90;;;-141.84;66.38;18458.50;5093629;28;20630;-63
2024/02/25 01:20:05;;;;;;;3.03;1.97;;;5.80;99.90;;;-141.84;67.61;18491.00;5093149;28;20628;-62
2024/02/25 01:22:37;;;;;;;1.83;1.73;;;5.70;99.90;;;-141.84;67.43;18468.66;5094525;28;20257;-62
2024/02/25 01:25:07;;;;;;;2.73;2.33;;;5.60;99.90;;;-141.84;68.47;18478.81;5085310;28;20218;-62
2024/02/25 01:27:38;;;;;;;2.83;2.00;;;5.50;99.90;;;-141.84;68.78;18458.50;5093145;28;20262;-61
2024/02/25 01:30:10;;;;;;;2.37;1.90;;;5.40;99.90;;;-141.84;69.91;18466.63;5091813;28;20849;-61
2024/02/25 01:32:39;;;;;;;2.83;2.10;;;5.30;99.90;;;-141.84;71.21;18462.56;5093215;28;20219;-61
2024/02/25 01:35:13;;;;;;;2.10;1.87;;;5.20;99.90;;;-141.84;71.64;18501.16;5090410;28;20288;-62
2024/02/25 01:37:43;;;;;;;2.40;1.80;;;5.10;99.90;;;-141.84;71.60;18509.28;5058302;28;20234;-63
2024/02/25 01:40:14;;;;;;;3.03;1.83;;;5.10;99.90;;;-141.84;71.27;18493.03;5092474;28;20309;-62
2024/02/25 01:42:42;;;;;;;1.90;1.70;;;5.00;99.90;;;-141.84;69.62;18476.78;5092648;28;20468;-66
2024/02/25 01:45:11;;;;;;;3.13;2.10;;;5.10;99.90;;;-141.84;68.98;18460.53;5092013;28;20760;-62
2024/02/25 01:47:40;;;;;;;2.10;1.90;;;5.20;99.90;;;-141.84;69.20;18452.41;5094319;28;20242;-62
2024/02/25 01:50:09;;;;;;;1.67;1.57;;;5.20;99.90;;;-141.84;69.26;18456.47;5093212;28;20306;-62
2024/02/25 01:52:38;;;;;;;2.03;1.83;;;5.20;99.90;;;-141.84;69.56;18458.50;5094083;28;20309;-62
2024/02/25 01:55:09;;;;;;;2.17;1.80;;;5.20;99.90;;;-141.84;69.19;18456.47;5092635;28;20287;-63
2024/02/25 01:57:37;;;;;;;1.80;1.70;;;5.20;99.90;;;-141.84;70.78;18484.91;5092015;28;20196;-62
2024/02/25 02:00:08;;;;;;;2.33;1.40;;;5.10;99.90;;;-141.84;70.71;18452.41;5093511;28;20203;-62
2024/02/25 02:02:37;;;;;;;2.33;1.80;;;5.10;99.90;;;-141.84;72.02;18480.84;5089481;28;20235;-62
2024/02/25 02:05:06;;;;;;;2.63;1.50;;;4.90;99.90;;;-141.84;72.47;18501.16;5089025;28;20241;-63
2024/02/25 02:07:39;;;;;;;1.90;1.47;;;4.90;99.90;;;-141.84;72.56;18476.78;5092845;28;20978;-62
2024/02/25 02:10:09;;;;;;;2.20;1.60;;;4.90;99.90;;;-141.84;72.93;18503.19;5091401;28;20318;-61
2024/02/25 02:12:41;;;;;;;2.40;1.80;;;4.80;99.90;;;-141.84;72.18;18507.25;5092065;28;20236;-63
2024/02/25 02:15:11;;;;;;;2.47;1.63;;;4.80;99.90;;;-141.84;72.26;18476.78;5091830;28;20219;-62
2024/02/25 02:17:41;;;;;;;1.73;1.40;;;4.80;99.90;;;-141.84;72.59;18482.88;5089247;28;20235;-62
2024/02/25 02:20:18;;;;;;;2.20;1.50;;;4.80;99.90;;;-141.84;72.80;18509.28;5092114;28;20310;-63
2024/02/25 02:22:48;;;;;;;1.60;1.50;;;4.80;99.90;;;-141.84;72.28;18491.00;5092567;28;20231;-61
2024/02/25 02:25:17;;;;;;;1.50;1.40;;;4.70;99.90;;;-141.84;72.28;18484.91;5090890;28;20954;-62
2024/02/25 02:27:46;;;;;;;2.87;1.53;;;4.80;99.90;;;-141.84;73.91;18501.16;5090388;28;20203;-61
2024/02/25 02:30:14;;;;;;;2.27;1.60;;;4.70;99.90;;;-141.84;74.21;18517.41;5091285;28;20253;-62
2024/02/25 02:32:43;;;;;;;1.80;1.67;;;4.60;99.90;;;-141.84;74.20;18513.34;5092220;28;20230;-62
2024/02/25 02:35:12;;;;;;;1.90;1.70;;;4.60;99.90;;;-141.84;74.86;18539.75;5091268;28;20222;-62
2024/02/25 02:37:43;;;;;;;1.90;1.50;;;4.60;99.90;;;-141.84;75.81;18623.06;5085744;28;20227;-62
2024/02/25 02:40:14;;;;;;;2.60;1.20;;;4.40;99.90;;;-141.84;76.65;18669.78;5090639;28;20352;-62
2024/02/25 02:42:42;;;;;;;2.27;1.60;;;4.40;99.90;;;-141.84;77.74;18740.91;5089752;28;20241;-63
2024/02/25 02:45:10;;;;;;;2.47;1.77;;;4.40;99.90;;;-141.84;78.79;18923.78;5093480;28;20286;-63
2024/02/25 02:47:40;;;;;;;2.23;1.40;;;4.30;99.90;;;-141.84;79.46;19007.06;5040117;28;20697;-63
2024/02/25 02:50:10;;;;;;;1.60;1.50;;;4.30;99.90;;;-141.84;78.87;18907.50;5091565;28;20302;-62
2024/02/25 02:52:40;;;;;;;2.50;1.50;;;4.20;99.90;;;-141.84;79.38;18984.72;5092221;28;20225;-63
2024/02/25 02:55:09;;;;;;;2.07;1.70;;;4.30;99.90;;;-141.84;79.64;19096.47;5057157;28;20314;-63
2024/02/25 02:57:38;;;;;;;2.20;1.60;;;4.10;99.90;;;-141.84;79.62;19023.34;5091111;28;20291;-62
2024/02/25 03:00:08;;;;;;;2.00;1.70;;;4.20;99.90;;;-141.84;79.56;19003.00;5093137;28;20209;-63
2024/02/25 03:02:37;;;;;;;2.43;1.50;;;4.20;99.90;;;-141.84;80.04;19078.19;5073980;28;20298;-62
2024/02/25 03:05:06;;;;;;;2.77;1.57;;;4.20;99.90;;;-141.84;79.61;19043.66;5094509;28;20254;-63
2024/02/25 03:07:37;;;;;;;2.40;1.50;;;4.10;99.90;;;-141.84;78.57;18828.28;5093276;28;20299;-62
2024/02/25 03:10:07;;;;;;;2.17;1.60;;;4.10;99.90;;;-141.84;77.29;18653.53;5092376;28;20257;-63
2024/02/25 03:12:36;;;;;;;1.70;1.60;;;4.20;99.90;;;-141.84;77.21;18610.88;5092757;28;20252;-62
2024/02/25 03:15:07;;;;;;;2.13;1.60;;;4.20;99.90;;;-141.84;78.02;18684.00;5089310;28;20202;-64
2024/02/25 03:17:36;;;;;;;2.37;1.67;;;4.20;99.90;;;-141.84;78.68;18797.78;5093216;28;20226;-63
2024/02/25 03:20:07;;;;;;;2.67;1.77;;;4.20;99.90;;;-141.84;79.60;18948.16;5093326;28;20231;-63
2024/02/25 03:22:36;;;;;;;1.70;1.60;;;4.10;99.90;;;-141.84;79.91;19059.91;5092166;28;20248;-63
2024/02/25 03:25:08;;;;;;;2.47;1.57;;;4.10;99.90;;;-141.84;79.86;19053.81;5082626;28;20227;-63
2024/02/25 03:27:37;;;;;;;1.87;1.73;;;4.10;99.90;;;-141.84;79.18;18917.66;5089226;28;20210;-63
2024/02/25 03:30:10;;;;;;;1.83;1.23;;;4.10;99.90;;;-141.84;78.73;18807.94;5092994;28;20195;-63
2024/02/25 03:32:39;;;;;;;1.30;1.17;;;4.20;99.90;;;-141.84;78.42;18777.47;5091047;28;20230;-62
2024/02/25 03:35:08;;;;;;;2.90;1.37;;;4.20;99.90;;;-141.84;78.00;18686.03;5093030;28;20220;-63
2024/02/25 03:37:38;;;;;;;1.73;1.30;;;4.20;99.90;;;-141.84;78.37;18736.84;5085578;28;20247;-64
2024/02/25 03:40:09;;;;;;;2.13;1.53;;;4.20;99.90;;;-141.84;78.07;18696.19;5092392;28;20242;-62
2024/02/25 03:42:37;;;;;;;4.00;1.80;;;4.10;99.90;;;-141.84;78.67;18763.25;5089880;28;20247;-63
2024/02/25 03:45:07;;;;;;;2.43;1.50;;;4.20;99.90;;;-141.84;79.35;18893.28;5093415;28;20237;-63
2024/02/25 03:47:36;;;;;;;1.57;1.40;;;4.10;99.90;;;-141.84;79.83;19015.19;5092685;28;20222;-64
2024/02/25 03:50:06;;;;;;;1.90;1.60;;;4.10;99.90;;;-141.84;80.39;19202.16;5090965;28;20238;-62
2024/02/25 03:52:35;;;;;;;1.50;1.40;;;4.00;99.90;;;-141.84;80.45;19208.25;5092552;28;20251;-61
2024/02/25 03:55:04;;;;;;;1.87;1.77;;;4.00;99.90;;;-141.84;80.55;19259.03;5090092;28;20220;-63
2024/02/25 03:57:33;;;;;;;1.97;1.40;;;4.00;99.90;;;-141.84;81.15;19443.97;5090832;28;20219;-62
2024/02/25 04:00:03;;;;;;;1.53;1.40;;;4.00;99.90;;;-141.84;80.86;19419.59;5093028;28;20243;-63
2024/02/25 04:02:34;;;;;;;1.20;1.10;;;4.00;99.90;;;-141.84;81.13;19468.34;5091238;28;20780;-62
2024/02/25 04:05:03;;;;;;;2.60;1.40;;;4.00;99.90;;;-141.84;81.72;19793.50;5035635;28;20226;-62
2024/02/25 04:07:31;;;;;;;1.80;1.60;;;4.00;99.90;;;-141.84;80.52;19370.81;5086232;28;20355;-61
2024/02/25 04:09:59;;;;;;;1.30;1.20;;;4.00;99.90;;;-141.84;81.22;19529.31;5089609;28;20251;-61
2024/02/25 04:12:27;;;;;;;1.40;1.23;;;4.10;99.90;;;-141.84;82.21;20384.97;5089859;28;20244;-63
2024/02/25 04:14:57;;;;;;;1.63;1.23;;;4.00;99.90;;;-141.84;81.80;19952.03;5092055;28;20218;-63
2024/02/25 04:17:26;;;;;;;1.43;1.27;;;4.10;99.90;;;-141.84;81.70;19862.63;5091935;28;20222;-62
2024/02/25 04:19:57;;;;;;;1.73;1.20;;;4.10;99.90;;;-141.84;81.03;19480.53;5089860;28;20822;-63
2024/02/25 04:22:26;;;;;;;1.40;1.30;;;4.10;99.90;;;-141.84;81.54;19734.56;5090181;28;20289;-62
2024/02/25 04:24:56;;;;;;;1.40;1.27;;;4.10;99.90;;;-141.84;80.16;19141.19;5081668;28;20281;-63
2024/02/25 04:27:24;;;;;;;1.27;1.10;;;4.20;99.90;;;-141.84;82.23;20228.47;5094247;28;20690;-63
2024/02/25 04:29:54;;;;;;;1.10;1.00;;;4.10;99.90;;;-141.84;82.27;20527.25;5095752;28;20290;-63
2024/02/25 04:32:25;;;;;;;1.50;1.40;;;4.00;99.90;;;-141.84;79.49;19112.75;5077003;28;20226;-63
2024/02/25 04:34:54;;;;;;;1.50;1.20;;;4.20;99.90;;;-141.84;78.60;18755.13;5092643;28;20368;-63
2024/02/25 04:37:23;;;;;;;2.20;1.43;;;4.20;99.90;;;-141.84;78.90;18895.31;5094144;28;20369;-62
2024/02/25 04:39:52;;;;;;;2.97;1.20;;;4.20;99.90;;;-141.84;78.26;18726.69;5094622;28;20653;-63
2024/02/25 04:42:20;;;;;;;1.60;1.50;;;4.20;99.90;;;-141.84;79.67;18956.28;5089124;28;20237;-61
2024/02/25 04:44:48;;;;;;;1.20;1.10;;;4.20;99.90;;;-141.84;81.62;19889.03;5094653;28;20893;-63
2024/02/25 04:47:16;;;;;;;2.03;1.30;;;4.20;99.90;;;-141.84;78.78;18860.78;5094783;28;20303;-62
2024/02/25 04:49:46;;;;;;;1.40;1.27;;;4.20;99.90;;;-141.84;77.32;18631.19;5093403;28;20257;-63
2024/02/25 04:52:14;;;;;;;1.40;1.10;;;4.20;99.90;;;-141.84;78.66;18744.97;5079509;28;20282;-62
2024/02/25 04:54:45;;;;;;;1.30;1.20;;;4.20;99.90;;;-141.84;79.52;18944.09;5093688;28;20287;-62
2024/02/25 04:57:17;;;;;;;2.10;1.30;;;4.20;99.90;;;-141.84;81.89;19870.75;5095665;28;20274;-63
2024/02/25 04:59:45;;;;;;;1.77;1.20;;;4.10;99.90;;;-141.84;80.10;19232.63;5093192;28;20317;-62
2024/02/25 05:02:14;;;;;;;3.10;1.60;;;4.10;99.90;;;-141.84;80.60;19214.34;5094244;28;20677;-62
2024/02/25 05:04:42;;;;;;;1.93;1.47;;;4.00;99.90;;;-141.84;82.37;20269.13;5092322;28;20319;-63
2024/02/25 05:07:10;;;;;;;1.50;1.40;;;4.00;99.90;;;-141.84;83.38;21718.63;5092272;28;20223;-63
2024/02/25 05:09:39;;;;;;;1.37;1.27;;;4.00;99.90;;;-141.84;83.44;21653.56;5050639;28;20199;-62
2024/02/25 05:12:11;;;;;;;2.07;1.57;;;3.90;99.90;;;-141.84;84.62;24153.31;5094672;28;20209;-63
2024/02/25 05:14:40;;;;;;;2.77;1.43;;;3.90;99.90;;;-141.84;84.56;23953.91;5090887;28;20220;-64
2024/02/25 05:17:08;;;;;;;1.60;1.50;;;3.90;99.90;;;-141.84;85.23;26976.34;5093357;28;20212;-63
2024/02/25 05:19:36;;;;;;;1.70;1.57;;;3.90;99.90;;;-141.84;85.68;27287.88;5086839;28;20270;-63
2024/02/25 05:22:05;;;;;;;1.67;1.57;;;3.80;99.90;;;-141.84;87.01;34682.41;5093500;28;20272;-62
2024/02/25 05:24:36;;;;;;;1.93;1.50;;;3.80;99.90;;;-141.84;84.88;26117.22;5093855;28;20252;-63
2024/02/25 05:27:05;;;;;;;1.63;1.50;;;3.80;99.90;;;-141.84;84.91;24806.47;5093784;28;20237;-62
2024/02/25 05:29:36;;;;;;;2.60;1.57;;;3.80;99.90;;;-141.84;85.42;27279.75;5095030;28;20227;-63
2024/02/25 05:32:07;;;;;;;1.50;1.40;;;3.80;99.90;;;-141.84;84.55;23911.19;5093819;28;20984;-62
2024/02/25 05:34:35;;;;;;;1.77;1.60;;;3.90;99.90;;;-141.84;84.18;23205.28;5095011;28;20225;-63
2024/02/25 05:37:03;;;;;;;1.63;1.50;;;3.90;99.90;;;-141.84;85.00;24881.78;5091488;28;20229;-63
2024/02/25 05:39:31;;;;;;;1.93;1.70;;;3.90;99.90;;;-141.84;86.02;29707.69;5093657;28;20699;-63
2024/02/25 05:42:02;;;;;;;4.03;2.97;;;3.80;99.90;;;-141.84;83.89;22957.13;5092728;28;20210;-63
2024/02/25 05:44:30;;;;;;;1.93;1.73;;;3.90;99.90;;;-141.84;84.46;23382.25;5093013;28;20305;-62
2024/02/25 05:47:00;;;;;;;1.77;1.60;;;3.90;99.90;;;-141.84;85.14;25756.91;5084477;28;20212;-63
2024/02/25 05:49:28;;;;;;;1.70;1.60;;;3.90;99.90;;;-141.84;86.15;30013.34;5092473;28;20227;-62
2024/02/25 05:51:56;;;;;;;1.80;1.60;;;3.80;99.90;;;-141.84;84.14;23201.22;5092044;28;20241;-62
2024/02/25 05:54:24;;;;;;;1.80;1.50;;;3.90;99.90;;;-141.84;85.65;27025.22;5094951;28;20192;-62
2024/02/25 05:56:54;;;;;;;1.80;1.67;;;3.80;99.90;;;-141.84;86.16;29813.66;5092662;28;20305;-62
2024/02/25 05:59:22;;;;;;;2.23;1.80;;;3.80;99.90;;;-141.84;85.28;26212.88;5095015;28;20226;-62
2024/02/25 06:01:51;;;;;;;4.13;1.83;;;3.80;99.90;;;-141.84;85.05;26538.63;5092200;28;20218;-63
2024/02/25 06:04:23;;;;;;;1.73;1.57;;;3.80;99.90;;;-141.84;86.45;30288.44;5090221;28;20257;-62
2024/02/25 06:06:53;;;;;;;2.97;1.67;;;3.80;99.90;;;-141.84;87.42;36808.78;5091090;28;20315;-61
2024/02/25 06:09:22;;;;;;;2.10;1.90;;;3.70;99.90;;;-141.84;87.19;37741.72;5094296;28;20642;-63
2024/02/25 06:11:50;;;;;;;2.37;1.73;;;3.80;99.90;;;-141.84;85.98;29817.72;5094167;28;20656;-63
2024/02/25 06:14:19;;;;;;;1.70;1.60;;;3.60;99.90;;;-141.84;85.10;26701.47;5084457;28;20222;-63
2024/02/25 06:16:47;;;;;;;3.40;1.80;;;3.90;99.90;;;-141.84;83.96;23557.22;5090733;28;20830;-64
2024/02/25 06:19:16;;;;;;;2.40;2.20;;;3.90;99.90;;;-141.84;85.43;26546.75;5091534;28;20229;-63
2024/02/25 06:21:45;;;;;;;2.43;2.07;;;3.90;99.90;;;-141.84;85.82;28980.38;5091494;28;20201;-62
2024/02/25 06:24:15;;;;;;;2.10;1.90;;;3.90;99.90;;;-141.84;85.95;30066.31;5093746;28;20224;-61
2024/02/25 06:26:44;;;;;;;2.73;2.07;;;3.90;99.90;;;-141.84;85.88;30641.00;5089381;28;20620;-62
2024/02/25 06:29:18;;;;;;;2.20;2.00;;;4.00;99.90;;;-141.84;85.51;28760.38;5091137;28;20230;-62
2024/02/25 06:31:46;;;;;;;2.50;2.30;;;4.00;99.90;;;-141.84;82.48;20822.03;5088859;28;20254;-62
2024/02/25 06:34:16;;;;;;;2.33;2.03;;;4.10;99.90;;;-141.84;81.71;20071.97;5092253;28;20237;-62
2024/02/25 06:36:46;;;;;;;2.50;2.23;;;4.20;99.90;;;-141.84;81.92;20185.78;5091194;28;20264;-63
2024/02/25 06:39:16;;;;;;;2.47;2.17;;;4.20;99.90;;;-141.84;82.03;20238.63;5093634;28;20248;-62
2024/02/25 06:41:46;;;;;;;2.37;2.17;;;4.30;99.90;;;-141.84;82.81;20744.78;5092888;28;20229;-63
2024/02/25 06:44:15;;;;;;;3.27;2.20;;;4.20;99.90;;;-141.84;81.61;19893.09;5090449;28;20238;-63
2024/02/25 06:46:43;;;;;;;2.40;2.20;;;4.20;99.90;;;-141.84;82.68;20604.50;5091156;28;20222;-63
2024/02/25 06:49:12;;;;;;;2.57;2.10;;;4.20;99.90;;;-141.84;83.11;21574.25;5091656;28;20591;-62
2024/02/25 06:51:42;;;;;;;2.37;2.17;;;4.20;99.90;;;-141.84;82.63;20765.09;5093200;28;20232;-63
2024/02/25 06:54:11;;;;;;;2.40;2.20;;;4.20;99.90;;;-141.84;80.55;19293.59;5093047;28;20564;-62
2024/02/25 06:56:40;;;;;;;2.57;2.23;;;4.30;99.90;;;-141.84;80.21;19248.88;5090445;28;20233;-61
2024/02/25 06:59:08;;;;;;;2.73;2.37;;;4.30;99.90;;;-141.84;79.79;18935.97;5091224;28;20219;-63
2024/02/25 07:01:37;;;;;;;2.70;2.27;;;4.40;99.90;;;-141.84;80.99;19409.41;5083859;28;20279;-62
2024/02/25 07:04:05;;;;;;;2.23;2.03;;;4.30;99.90;;;-141.84;82.60;20515.06;5091394;28;20227;-64
2024/02/25 07:06:34;;;;;;;3.73;2.30;;;4.40;99.90;;;-141.84;83.05;21338.41;5090704;28;20200;-62
2024/02/25 07:09:03;;;;;;;2.50;2.30;;;4.20;99.90;;;-141.84;83.51;22188.34;5091846;28;20221;-62
2024/02/25 07:11:33;;;;;;;3.20;2.90;;;4.20;99.90;;;-141.84;83.38;21924.00;5091192;28;20219;-62
2024/02/25 07:14:02;;;;;;;2.90;2.60;;;4.20;99.90;;;-141.84;81.87;20169.53;5069754;28;20876;-63
2024/02/25 07:16:30;;;;;;;3.60;2.30;;;4.20;99.90;;;-141.84;81.23;19714.25;5090561;28;20253;-62
2024/02/25 07:18:59;;;;;;;2.47;2.27;;;4.20;99.90;;;-141.84;81.27;19604.50;5091259;28;20275;-62
2024/02/25 07:21:27;;;;;;;2.90;2.30;;;4.20;99.90;;;-141.84;79.56;18938.00;5089731;28;20638;-63
2024/02/25 07:23:56;;;;;;;3.00;2.40;;;4.30;99.90;;;-141.84;79.51;18956.28;5091269;28;20214;-62
2024/02/25 07:26:24;;;;;;;2.40;2.20;;;4.30;99.90;;;-141.84;79.91;19021.31;5090984;28;20236;-63
2024/02/25 07:28:54;;;;;;;2.20;2.00;;;4.40;99.90;;;-141.84;77.50;18582.44;5087894;28;20249;-63
2024/02/25 07:31:22;;;;;;;2.97;2.17;;;4.50;99.90;;;-141.84;78.05;18663.69;5091266;28;20257;-63
2024/02/25 07:33:51;;;;;;;2.60;2.40;;;4.50;99.90;;;-141.84;75.98;18428.03;5090827;28;20304;-63
2024/02/25 07:36:21;;;;;;;2.87;2.10;;;4.60;99.90;;;-141.84;76.60;18501.16;5064973;28;20199;-62
2024/02/25 07:38:49;;;;;;;2.77;2.43;;;4.70;99.90;;;-141.84;75.38;18428.03;5092357;28;20316;-62
2024/02/25 07:41:18;;;;;;;3.57;2.63;;;4.70;99.90;;;-141.84;73.45;18371.13;5092908;28;20234;-63
2024/02/25 07:43:46;;;;;;;2.60;2.40;;;4.90;99.90;;;-141.84;72.76;18354.88;5092997;28;20317;-62
2024/02/25 07:46:16;;;;;;;5.10;2.40;;;5.20;99.90;;;-141.84;71.68;18371.13;5085014;28;20261;-61
2024/02/25 07:48:45;;;;;;;3.60;2.60;;;5.40;99.90;;;-141.84;68.69;18348.78;5090086;28;20629;-62
2024/02/25 07:51:18;;;;;;;2.40;2.20;;;5.60;99.90;;;-141.84;67.36;18340.66;5092267;28;20233;-61
2024/02/25 07:53:48;;;;;;;2.47;2.17;;;5.80;99.90;;;-141.84;66.44;18356.91;5089692;28;20326;-62
2024/02/25 07:56:20;;;;;;;2.50;2.30;;;6.10;99.90;;;-141.84;65.77;18344.72;5090819;28;20231;-61
2024/02/25 07:58:48;;;;;;;2.20;2.00;;;6.30;99.90;;;-141.84;64.15;18444.28;5089390;28;20252;-62
2024/02/25 08:01:19;;;;;;;2.70;2.10;;;6.40;99.90;;;-141.84;61.60;18411.75;5095818;28;20238;-61
2024/02/25 08:03:47;;;;;;;2.30;2.10;;;6.60;99.90;;;-141.84;62.17;18419.88;5096493;28;20184;-63
2024/02/25 08:06:25;;;;;;;2.53;2.03;;;6.80;99.90;;;-141.84;61.80;18411.75;5096986;28;20223;-62
2024/02/25 08:08:54;;;;;;;3.27;1.87;;;6.90;99.90;;;-141.84;58.58;18425.97;5087738;28;20219;-63
2024/02/25 08:11:23;;;;;;;2.43;2.23;;;7.10;99.90;;;-141.84;58.08;18454.44;5097435;28;20636;-63
2024/02/25 08:13:51;;;;;;;2.20;2.00;;;7.10;99.90;;;-141.84;57.92;18464.59;5096823;28;20256;-61
2024/02/25 08:16:24;;;;;;;2.30;1.90;;;7.20;99.90;;;-141.84;57.92;18468.66;5041110;28;20227;-62
2024/02/25 08:18:55;;;;;;;2.63;2.10;;;7.30;99.90;;;-141.84;57.95;18480.84;5097534;28;20231;-62
2024/02/25 08:21:24;;;;;;;2.33;2.13;;;7.30;99.90;;;-141.84;58.19;18460.53;5095807;28;20216;-62
2024/02/25 08:23:54;;;;;;;2.43;2.10;;;7.40;99.90;;;-141.84;56.63;18480.84;5095708;28;20273;-62
2024/02/25 08:26:25;;;;;;;2.60;1.90;;;7.50;99.90;;;-141.84;57.38;18509.28;5095855;28;20220;-63
2024/02/25 08:28:58;;;;;;;3.37;2.50;;;7.50;99.90;;;-141.84;56.10;18545.84;5092460;28;20345;-62
2024/02/25 08:31:28;;;;;;;3.23;2.73;;;7.60;99.90;;;-141.84;56.29;18499.13;5094892;28;20224;-64
2024/02/25 08:33:56;;;;;;;3.03;2.20;;;7.70;99.90;;;-141.84;55.89;18533.66;5095624;28;20274;-61
2024/02/25 08:36:24;;;;;;;2.33;2.13;;;7.80;99.90;;;-141.84;54.97;18525.53;5094909;28;20846;-62
2024/02/25 08:38:54;;;;;;;3.03;2.33;;;7.90;99.90;;;-141.84;55.24;18523.50;5093737;28;20298;-62
2024/02/25 08:41:24;;;;;;;3.13;2.50;;;8.10;99.90;;;-141.84;54.72;18549.91;5094986;28;20273;-64
2024/02/25 08:43:54;;;;;;;3.40;2.80;;;8.20;99.90;;;-141.84;53.72;18558.03;5096467;28;20298;-63
2024/02/25 08:46:24;;;;;;;3.00;2.50;;;8.20;99.90;;;-141.84;54.14;18574.28;5094039;28;20252;-63
2024/02/25 08:48:57;;;;;;;2.20;2.00;;;8.30;99.90;;;-141.84;54.21;18551.94;5094215;28;20231;-63
2024/02/25 08:51:26;;;;;;;2.83;2.60;;;8.40;99.90;;;-141.84;52.81;18582.44;5051958;28;20283;-63
2024/02/25 08:53:56;;;;;;;3.07;2.60;;;8.50;99.90;;;-141.84;52.54;18586.50;5094959;28;20216;-63
2024/02/25 08:56:25;;;;;;;2.63;2.43;;;8.60;99.90;;;-141.84;52.47;18600.72;5089880;28;20768;-63
2024/02/25 08:58:54;;;;;;;3.27;2.70;;;8.60;99.90;;;-141.84;52.69;18600.72;5091927;28;20215;-63
2024/02/25 09:01:23;;;;;;;2.83;2.53;;;8.70;99.90;;;-141.84;52.29;18598.69;5091593;28;20589;-62
2024/02/25 09:03:51;;;;;;;2.93;2.63;;;8.80;99.90;;;-141.84;52.04;18598.69;5090465;28;20808;-62
2024/02/25 09:06:22;;;;;;;3.10;2.80;;;8.90;99.90;;;-141.84;51.33;18625.09;5093115;28;20242;-65
2024/02/25 09:08:51;;;;;;;4.57;2.70;;;9.00;99.90;;;-141.84;51.42;18627.13;5082829;28;20240;-66
2024/02/25 09:11:20;;;;;;;2.90;2.40;;;9.00;99.90;;;-141.84;51.28;18604.78;5095307;28;20231;-65
2024/02/25 09:13:51;;;;;;;2.90;2.60;;;9.10;99.90;;;-141.84;50.58;18657.59;5095918;28;20719;-64
2024/02/25 09:16:20;;;;;;;3.57;2.60;;;9.10;99.90;;;-141.84;50.59;18621.03;5093247;28;20242;-65
2024/02/25 09:18:48;;;;;;;3.70;2.53;;;9.20;99.90;;;-141.84;50.35;18653.53;5094826;28;20206;-63
2024/02/25 09:21:19;;;;;;;3.80;3.00;;;9.20;99.90;;;-141.84;50.74;18635.25;5097195;28;20204;-62
2024/02/25 09:23:48;;;;;;;2.67;2.47;;;9.30;99.90;;;-141.84;49.93;18653.53;5092054;28;20247;-62
2024/02/25 09:26:17;;;;;;;2.93;2.67;;;9.40;99.90;;;-141.84;49.88;18675.88;5090297;28;20594;-62
2024/02/25 09:28:59;;;;;;;3.37;2.63;;;9.60;99.90;;;-141.84;49.24;18704.31;5090991;28;20220;-62
2024/02/25 09:31:28;;;;;;;2.97;2.67;;;9.50;99.90;;;-141.84;49.11;18675.88;5089929;28;20224;-63
2024/02/25 09:33:58;;;;;;;2.70;2.50;;;9.70;99.90;;;-141.84;49.17;18700.25;5091979;28;20218;-62
2024/02/25 09:36:27;;;;;;;3.30;2.97;;;9.70;99.90;;;-141.84;49.51;18700.25;5092406;28;20214;-63
2024/02/25 09:38:59;;;;;;;3.67;2.73;;;9.60;99.90;;;-141.84;50.07;18679.94;5093861;28;20267;-62
2024/02/25 09:41:29;;;;;;;3.57;3.00;;;9.60;99.90;;;-141.84;49.50;18704.31;5090907;28;20281;-62
2024/02/25 09:43:59;;;;;;;4.47;3.07;;;9.70;99.90;;;-141.84;49.17;18704.31;5090541;28;20234;-62
2024/02/25 09:46:31;;;;;;;3.07;2.77;;;9.70;99.90;;;-141.84;49.38;18696.19;5087475;28;20352;-61
2024/02/25 09:49:00;;;;;;;2.90;2.57;;;9.80;99.90;;;-141.84;48.57;18732.78;5082547;28;20224;-61
2024/02/25 09:51:30;;;;;;;4.00;2.70;;;9.90;99.90;;;-141.84;48.54;18708.41;5089362;28;20216;-63
2024/02/25 09:54:02;;;;;;;3.57;3.07;;;10.00;99.90;;;-141.84;48.15;18757.16;5091660;28;20235;-62
2024/02/25 09:56:31;;;;;;;4.63;2.73;;;10.10;99.90;;;-141.84;47.86;18753.09;5089099;28;20688;-62
2024/02/25 09:58:59;;;;;;;5.03;2.60;;;10.20;99.90;;;-141.84;46.83;18846.56;5090942;28;20228;-63
2024/02/25 10:01:28;;;;;;;3.30;3.00;;;10.50;99.90;;;-141.84;47.00;18781.53;5085707;28;20637;-63
2024/02/25 10:03:56;;;;;;;2.77;2.57;;;10.60;99.90;;;-141.84;46.71;18799.81;5085428;28;20787;-62
2024/02/25 10:06:26;;;;;;;3.17;2.60;;;10.70;99.90;;;-141.84;47.12;18803.88;5090699;28;20231;-63
2024/02/25 10:08:56;;;;;;;4.60;2.80;;;10.70;99.90;;;-141.84;46.77;18799.81;5091643;28;20309;-62
2024/02/25 10:11:27;;;;;;;3.87;3.00;;;10.80;99.90;;;-141.84;46.54;18860.78;5089644;28;20228;-62
2024/02/25 10:13:57;;;;;;;3.13;2.83;;;10.90;99.90;;;-141.84;46.89;18797.78;5093331;28;20304;-62
2024/02/25 10:16:25;;;;;;;4.13;2.90;;;11.00;99.90;;;-141.84;46.97;18789.66;5089778;28;20251;-61
2024/02/25 10:18:54;;;;;;;6.67;4.13;;;11.00;99.90;;;-141.84;46.18;18842.50;5091668;28;20925;-61
2024/02/25 10:21:23;;;;;;;5.40;3.30;;;11.10;99.90;;;-141.84;45.03;18862.81;5091046;28;20626;-62